sensor_id;sensor_type;location;lat;lon;timestamp;temperature;humidity
53695;DHT22;39588;51.124;7.190;2023-08-17T00:01:39;18.60;99.90
53695;DHT22;39588;51.124;7.190;2023-08-17T00:04:05;18.50;99.90
53695;DHT22;39588;51.124;7.190;2023-08-17T00:40:37;17.90;99.90
53695;DHT22;39588;51.124;7.190;2023-08-17T00:43:02;17.90;99.90
53695;DHT22;39588;51.124;7.190;2023-08-17T00:45:28;17.90;99.90
53695;DHT22;39588;51.124;7.190;2023-08-17T00:47:56;17.80;99.90
53695;DHT22;39588;51.124;7.190;2023-08-17T00:50:23;17.80;99.90
53695;DHT22;39588;51.124;7.190;2023-08-17T00:52:49;17.80;99.90
53695;DHT22;39588;51.124;7.190;2023-08-17T00:55:16;17.80;99.90
53695;DHT22;39588;51.124;7.190;2023-08-17T00:57:42;17.80;99.90
53695;DHT22;39588;51.124;7.190;2023-08-17T01:00:10;17.80;99.90
53695;DHT22;39588;51.124;7.190;2023-08-17T01:02:41;17.70;99.90
53695;DHT22;39588;51.124;7.190;2023-08-17T01:07:33;17.70;99.90
53695;DHT22;39588;51.124;7.190;2023-08-17T01:09:59;17.60;99.90
53695;DHT22;39588;51.124;7.190;2023-08-17T01:15:31;17.50;99.90
53695;DHT22;39588;51.124;7.190;2023-08-17T01:18:03;17.50;99.90
53695;DHT22;39588;51.124;7.190;2023-08-17T01:20:31;17.50;99.90
53695;DHT22;39588;51.124;7.190;2023-08-17T01:23:06;17.40;99.90
53695;DHT22;39588;51.124;7.190;2023-08-17T01:28:04;17.40;99.90
53695;DHT22;39588;51.124;7.190;2023-08-17T01:30:33;17.40;99.90
53695;DHT22;39588;51.124;7.190;2023-08-17T01:33:11;17.40;99.90
53695;DHT22;39588;51.124;7.190;2023-08-17T01:35:50;17.40;99.90
53695;DHT22;39588;51.124;7.190;2023-08-17T01:38:18;17.40;99.90
53695;DHT22;39588;51.124;7.190;2023-08-17T01:40:48;17.40;99.90
53695;DHT22;39588;51.124;7.190;2023-08-17T01:43:16;17.40;99.90
53695;DHT22;39588;51.124;7.190;2023-08-17T01:45:42;17.30;99.90
53695;DHT22;39588;51.124;7.190;2023-08-17T01:48:08;17.30;99.90
53695;DHT22;39588;51.124;7.190;2023-08-17T01:50:34;17.30;99.90
53695;DHT22;39588;51.124;7.190;2023-08-17T01:57:52;17.30;99.90
53695;DHT22;39588;51.124;7.190;2023-08-17T02:00:18;17.30;99.90
53695;DHT22;39588;51.124;7.190;2023-08-17T02:02:43;17.30;99.90
53695;DHT22;39588;51.124;7.190;2023-08-17T02:05:09;17.30;99.90
53695;DHT22;39588;51.124;7.190;2023-08-17T02:10:01;17.20;99.90
53695;DHT22;39588;51.124;7.190;2023-08-17T02:12:26;17.20;99.90
53695;DHT22;39588;51.124;7.190;2023-08-17T02:17:19;17.20;99.90
53695;DHT22;39588;51.124;7.190;2023-08-17T02:19:47;17.10;99.90
53695;DHT22;39588;51.124;7.190;2023-08-17T02:22:13;17.10;99.90
53695;DHT22;39588;51.124;7.190;2023-08-17T02:24:39;17.10;99.90
53695;DHT22;39588;51.124;7.190;2023-08-17T02:29:30;17.10;99.90
53695;DHT22;39588;51.124;7.190;2023-08-17T02:31:57;17.10;99.90
53695;DHT22;39588;51.124;7.190;2023-08-17T02:39:14;17.10;99.90
53695;DHT22;39588;51.124;7.190;2023-08-17T02:41:40;17.10;99.90
53695;DHT22;39588;51.124;7.190;2023-08-17T02:44:06;17.10;99.90
53695;DHT22;39588;51.124;7.190;2023-08-17T02:46:32;17.10;99.90
53695;DHT22;39588;51.124;7.190;2023-08-17T02:48:57;17.10;99.90
53695;DHT22;39588;51.124;7.190;2023-08-17T02:53:49;17.10;99.90
53695;DHT22;39588;51.124;7.190;2023-08-17T02:56:15;17.10;99.90
53695;DHT22;39588;51.124;7.190;2023-08-17T02:58:40;17.10;99.90
53695;DHT22;39588;51.124;7.190;2023-08-17T03:01:07;17.10;99.90
53695;DHT22;39588;51.124;7.190;2023-08-17T03:03:32;17.10;99.90
53695;DHT22;39588;51.124;7.190;2023-08-17T03:08:24;17.10;99.90
53695;DHT22;39588;51.124;7.190;2023-08-17T03:13:15;17.10;99.90
53695;DHT22;39588;51.124;7.190;2023-08-17T03:15:41;17.10;99.90
53695;DHT22;39588;51.124;7.190;2023-08-17T03:18:06;17.00;99.90
53695;DHT22;39588;51.124;7.190;2023-08-17T03:20:32;17.00;99.90
53695;DHT22;39588;51.124;7.190;2023-08-17T03:22:58;16.90;99.90
53695;DHT22;39588;51.124;7.190;2023-08-17T03:27:49;17.00;99.90
53695;DHT22;39588;51.124;7.190;2023-08-17T03:30:15;16.90;99.90
53695;DHT22;39588;51.124;7.190;2023-08-17T03:32:41;16.80;99.90
53695;DHT22;39588;51.124;7.190;2023-08-17T03:35:08;16.80;99.90
53695;DHT22;39588;51.124;7.190;2023-08-17T03:37:34;16.80;99.90
53695;DHT22;39588;51.124;7.190;2023-08-17T03:39:59;16.70;99.90
53695;DHT22;39588;51.124;7.190;2023-08-17T03:42:26;16.70;99.90
53695;DHT22;39588;51.124;7.190;2023-08-17T03:44:52;16.70;99.90
53695;DHT22;39588;51.124;7.190;2023-08-17T03:47:18;16.70;99.90
53695;DHT22;39588;51.124;7.190;2023-08-17T03:49:44;16.70;99.90
53695;DHT22;39588;51.124;7.190;2023-08-17T03:52:09;16.70;99.90
53695;DHT22;39588;51.124;7.190;2023-08-17T03:54:36;16.70;99.90
53695;DHT22;39588;51.124;7.190;2023-08-17T03:57:01;16.70;99.90
53695;DHT22;39588;51.124;7.190;2023-08-17T04:01:53;16.80;99.90
53695;DHT22;39588;51.124;7.190;2023-08-17T04:28:39;16.80;99.90
53695;DHT22;39588;51.124;7.190;2023-08-17T04:31:05;16.80;99.90
53695;DHT22;39588;51.124;7.190;2023-08-17T04:33:31;16.80;99.90
53695;DHT22;39588;51.124;7.190;2023-08-17T04:35:57;16.80;99.90
53695;DHT22;39588;51.124;7.190;2023-08-17T04:43:16;16.90;99.90
53695;DHT22;39588;51.124;7.190;2023-08-17T04:48:08;17.00;99.90
53695;DHT22;39588;51.124;7.190;2023-08-17T04:50:33;17.00;99.90
53695;DHT22;39588;51.124;7.190;2023-08-17T04:55:25;17.00;99.90
53695;DHT22;39588;51.124;7.190;2023-08-17T04:57:50;17.00;99.90
53695;DHT22;39588;51.124;7.190;2023-08-17T05:00:16;17.00;99.90
53695;DHT22;39588;51.124;7.190;2023-08-17T05:02:42;16.90;99.90
53695;DHT22;39588;51.124;7.190;2023-08-17T05:05:10;16.90;99.90
53695;DHT22;39588;51.124;7.190;2023-08-17T05:07:36;16.90;99.90
53695;DHT22;39588;51.124;7.190;2023-08-17T05:10:02;16.90;99.90
53695;DHT22;39588;51.124;7.190;2023-08-17T05:12:27;17.00;99.90
53695;DHT22;39588;51.124;7.190;2023-08-17T05:14:53;16.90;99.90
53695;DHT22;39588;51.124;7.190;2023-08-17T05:17:19;17.00;99.90
53695;DHT22;39588;51.124;7.190;2023-08-17T05:19:44;17.00;99.90
53695;DHT22;39588;51.124;7.190;2023-08-17T05:22:11;17.10;99.90
53695;DHT22;39588;51.124;7.190;2023-08-17T05:29:30;17.30;99.90
53695;DHT22;39588;51.124;7.190;2023-08-17T05:31:57;17.20;99.90
53695;DHT22;39588;51.124;7.190;2023-08-17T05:36:49;17.20;99.90
53695;DHT22;39588;51.124;7.190;2023-08-17T05:39:15;17.30;99.90
53695;DHT22;39588;51.124;7.190;2023-08-17T05:41:40;17.30;99.90
53695;DHT22;39588;51.124;7.190;2023-08-17T05:44:06;17.30;99.90
53695;DHT22;39588;51.124;7.190;2023-08-17T05:46:33;17.40;99.90
53695;DHT22;39588;51.124;7.190;2023-08-17T05:48:59;17.50;99.90
53695;DHT22;39588;51.124;7.190;2023-08-17T05:51:25;17.60;99.90
53695;DHT22;39588;51.124;7.190;2023-08-17T05:53:50;17.50;99.90
53695;DHT22;39588;51.124;7.190;2023-08-17T05:56:16;17.60;99.90
53695;DHT22;39588;51.124;7.190;2023-08-17T05:58:42;17.60;99.90
53695;DHT22;39588;51.124;7.190;2023-08-17T06:01:08;17.70;99.90
53695;DHT22;39588;51.124;7.190;2023-08-17T06:03:35;17.70;99.90
53695;DHT22;39588;51.124;7.190;2023-08-17T06:13:19;17.80;99.90
53695;DHT22;39588;51.124;7.190;2023-08-17T06:15:44;17.90;99.90
53695;DHT22;39588;51.124;7.190;2023-08-17T06:18:10;18.10;99.90
53695;DHT22;39588;51.124;7.190;2023-08-17T06:20:36;18.20;99.90
53695;DHT22;39588;51.124;7.190;2023-08-17T06:23:01;18.30;99.90
53695;DHT22;39588;51.124;7.190;2023-08-17T06:25:27;18.30;99.90
53695;DHT22;39588;51.124;7.190;2023-08-17T06:27:53;18.40;99.90
53695;DHT22;39588;51.124;7.190;2023-08-17T06:30:18;18.30;99.90
53695;DHT22;39588;51.124;7.190;2023-08-17T06:32:44;18.50;99.90
53695;DHT22;39588;51.124;7.190;2023-08-17T06:35:10;18.60;99.90
53695;DHT22;39588;51.124;7.190;2023-08-17T06:37:35;18.60;99.90
53695;DHT22;39588;51.124;7.190;2023-08-17T06:40:03;18.70;99.90
53695;DHT22;39588;51.124;7.190;2023-08-17T06:42:28;18.70;99.90
53695;DHT22;39588;51.124;7.190;2023-08-17T06:44:54;18.70;99.90
53695;DHT22;39588;51.124;7.190;2023-08-17T06:49:46;18.70;99.90
53695;DHT22;39588;51.124;7.190;2023-08-17T06:52:11;18.60;99.90
53695;DHT22;39588;51.124;7.190;2023-08-17T06:54:37;18.60;99.90
53695;DHT22;39588;51.124;7.190;2023-08-17T06:57:03;18.70;99.90
53695;DHT22;39588;51.124;7.190;2023-08-17T06:59:28;18.90;99.90
53695;DHT22;39588;51.124;7.190;2023-08-17T07:01:54;18.90;99.90
53695;DHT22;39588;51.124;7.190;2023-08-17T07:04:19;19.10;99.90
53695;DHT22;39588;51.124;7.190;2023-08-17T07:06:45;19.10;99.90
53695;DHT22;39588;51.124;7.190;2023-08-17T07:09:11;19.20;99.90
53695;DHT22;39588;51.124;7.190;2023-08-17T07:11:38;19.50;99.90
53695;DHT22;39588;51.124;7.190;2023-08-17T07:14:04;19.70;99.90
53695;DHT22;39588;51.124;7.190;2023-08-17T07:16:32;19.90;99.90
53695;DHT22;39588;51.124;7.190;2023-08-17T07:18:57;19.90;99.90
53695;DHT22;39588;51.124;7.190;2023-08-17T07:23:50;20.30;99.90
53695;DHT22;39588;51.124;7.190;2023-08-17T07:26:17;20.50;99.90
53695;DHT22;39588;51.124;7.190;2023-08-17T07:28:44;20.50;99.90
53695;DHT22;39588;51.124;7.190;2023-08-17T07:31:10;20.60;99.90
53695;DHT22;39588;51.124;7.190;2023-08-17T07:33:36;20.60;99.90
53695;DHT22;39588;51.124;7.190;2023-08-17T07:36:02;20.70;99.90
53695;DHT22;39588;51.124;7.190;2023-08-17T07:38:28;20.50;99.90
53695;DHT22;39588;51.124;7.190;2023-08-17T07:40:54;20.40;99.90
53695;DHT22;39588;51.124;7.190;2023-08-17T07:43:20;20.40;99.90
53695;DHT22;39588;51.124;7.190;2023-08-17T07:45:51;20.50;99.90
53695;DHT22;39588;51.124;7.190;2023-08-17T07:48:17;20.60;99.90
53695;DHT22;39588;51.124;7.190;2023-08-17T07:50:43;20.60;99.90
53695;DHT22;39588;51.124;7.190;2023-08-17T07:53:13;20.30;99.90
53695;DHT22;39588;51.124;7.190;2023-08-17T07:55:38;20.30;99.90
53695;DHT22;39588;51.124;7.190;2023-08-17T08:00:32;20.40;99.90
53695;DHT22;39588;51.124;7.190;2023-08-17T08:02:57;20.60;99.90
53695;DHT22;39588;51.124;7.190;2023-08-17T08:05:23;20.60;99.90
53695;DHT22;39588;51.124;7.190;2023-08-17T08:07:49;20.70;99.90
53695;DHT22;39588;51.124;7.190;2023-08-17T08:10:15;20.80;99.90
53695;DHT22;39588;51.124;7.190;2023-08-17T08:15:07;20.90;99.90
53695;DHT22;39588;51.124;7.190;2023-08-17T08:17:32;20.90;99.90
53695;DHT22;39588;51.124;7.190;2023-08-17T08:19:58;21.00;99.90
53695;DHT22;39588;51.124;7.190;2023-08-17T08:22:24;21.00;99.90
53695;DHT22;39588;51.124;7.190;2023-08-17T08:24:50;21.10;99.90
53695;DHT22;39588;51.124;7.190;2023-08-17T08:27:16;21.00;99.90
53695;DHT22;39588;51.124;7.190;2023-08-17T08:29:42;21.10;99.90
53695;DHT22;39588;51.124;7.190;2023-08-17T08:32:07;21.10;99.90
53695;DHT22;39588;51.124;7.190;2023-08-17T08:34:33;21.30;99.90
53695;DHT22;39588;51.124;7.190;2023-08-17T08:36:59;21.40;99.90
53695;DHT22;39588;51.124;7.190;2023-08-17T08:39:27;21.40;99.90
53695;DHT22;39588;51.124;7.190;2023-08-17T08:41:53;21.50;99.90
53695;DHT22;39588;51.124;7.190;2023-08-17T08:44:19;21.60;99.90
53695;DHT22;39588;51.124;7.190;2023-08-17T08:46:45;21.60;99.90
53695;DHT22;39588;51.124;7.190;2023-08-17T08:49:11;21.70;99.90
53695;DHT22;39588;51.124;7.190;2023-08-17T08:51:44;21.70;99.90
53695;DHT22;39588;51.124;7.190;2023-08-17T08:54:21;21.60;99.90
53695;DHT22;39588;51.124;7.190;2023-08-17T08:56:53;21.50;99.90
53695;DHT22;39588;51.124;7.190;2023-08-17T08:59:20;21.50;99.90
53695;DHT22;39588;51.124;7.190;2023-08-17T09:01:47;21.40;99.90
53695;DHT22;39588;51.124;7.190;2023-08-17T09:04:13;21.40;99.90
53695;DHT22;39588;51.124;7.190;2023-08-17T09:06:40;21.40;99.90
53695;DHT22;39588;51.124;7.190;2023-08-17T09:09:07;21.40;99.90
53695;DHT22;39588;51.124;7.190;2023-08-17T09:11:34;21.50;99.90
53695;DHT22;39588;51.124;7.190;2023-08-17T09:14:00;21.60;99.90
53695;DHT22;39588;51.124;7.190;2023-08-17T09:16:27;21.70;99.90
53695;DHT22;39588;51.124;7.190;2023-08-17T09:18:53;21.80;99.90
53695;DHT22;39588;51.124;7.190;2023-08-17T09:21:23;22.00;99.90
53695;DHT22;39588;51.124;7.190;2023-08-17T09:23:53;21.90;99.90
53695;DHT22;39588;51.124;7.190;2023-08-17T09:26:22;22.00;99.90
53695;DHT22;39588;51.124;7.190;2023-08-17T09:28:52;21.80;99.90
53695;DHT22;39588;51.124;7.190;2023-08-17T09:31:25;21.80;99.90
53695;DHT22;39588;51.124;7.190;2023-08-17T09:33:51;21.90;99.90
53695;DHT22;39588;51.124;7.190;2023-08-17T09:36:21;21.70;99.90
53695;DHT22;39588;51.124;7.190;2023-08-17T09:38:50;21.60;99.90
53695;DHT22;39588;51.124;7.190;2023-08-17T09:41:17;21.70;99.90
53695;DHT22;39588;51.124;7.190;2023-08-17T09:43:43;21.60;99.90
53695;DHT22;39588;51.124;7.190;2023-08-17T09:46:09;21.60;99.90
53695;DHT22;39588;51.124;7.190;2023-08-17T09:48:36;21.80;99.90
53695;DHT22;39588;51.124;7.190;2023-08-17T09:51:01;21.90;99.90
53695;DHT22;39588;51.124;7.190;2023-08-17T09:53:27;21.90;99.90
53695;DHT22;39588;51.124;7.190;2023-08-17T09:55:54;21.90;99.90
53695;DHT22;39588;51.124;7.190;2023-08-17T09:58:22;21.90;99.90
53695;DHT22;39588;51.124;7.190;2023-08-17T10:00:50;21.90;99.90
53695;DHT22;39588;51.124;7.190;2023-08-17T10:03:17;21.80;99.90
53695;DHT22;39588;51.124;7.190;2023-08-17T10:05:45;21.90;99.90
53695;DHT22;39588;51.124;7.190;2023-08-17T10:08:15;22.00;99.90
53695;DHT22;39588;51.124;7.190;2023-08-17T10:10:45;22.00;99.90
53695;DHT22;39588;51.124;7.190;2023-08-17T10:13:21;22.00;99.90
53695;DHT22;39588;51.124;7.190;2023-08-17T10:16:10;22.20;99.90
53695;DHT22;39588;51.124;7.190;2023-08-17T10:18:45;22.30;99.90
53695;DHT22;39588;51.124;7.190;2023-08-17T10:21:27;22.30;99.90
53695;DHT22;39588;51.124;7.190;2023-08-17T10:23:53;22.30;99.90
53695;DHT22;39588;51.124;7.190;2023-08-17T10:26:20;22.40;99.90
53695;DHT22;39588;51.124;7.190;2023-08-17T10:28:48;22.50;99.90
53695;DHT22;39588;51.124;7.190;2023-08-17T10:31:14;22.70;99.90
53695;DHT22;39588;51.124;7.190;2023-08-17T10:33:40;22.70;99.90
53695;DHT22;39588;51.124;7.190;2023-08-17T10:36:09;22.70;99.90
53695;DHT22;39588;51.124;7.190;2023-08-17T10:38:35;22.70;99.90
53695;DHT22;39588;51.124;7.190;2023-08-17T10:41:08;22.80;99.90
53695;DHT22;39588;51.124;7.190;2023-08-17T10:43:35;22.70;99.90
53695;DHT22;39588;51.124;7.190;2023-08-17T10:46:18;22.80;99.90
53695;DHT22;39588;51.124;7.190;2023-08-17T10:48:44;22.80;99.90
53695;DHT22;39588;51.124;7.190;2023-08-17T10:51:09;22.90;99.90
53695;DHT22;39588;51.124;7.190;2023-08-17T10:53:39;22.90;99.90
53695;DHT22;39588;51.124;7.190;2023-08-17T10:56:13;23.10;99.90
53695;DHT22;39588;51.124;7.190;2023-08-17T10:58:41;23.00;99.90
53695;DHT22;39588;51.124;7.190;2023-08-17T11:01:08;23.10;99.90
53695;DHT22;39588;51.124;7.190;2023-08-17T11:03:34;23.20;99.90
53695;DHT22;39588;51.124;7.190;2023-08-17T11:06:15;23.30;99.90
53695;DHT22;39588;51.124;7.190;2023-08-17T11:08:52;23.40;99.90
53695;DHT22;39588;51.124;7.190;2023-08-17T11:11:20;23.40;99.90
53695;DHT22;39588;51.124;7.190;2023-08-17T11:13:47;23.60;99.90
53695;DHT22;39588;51.124;7.190;2023-08-17T11:16:14;23.60;99.90
53695;DHT22;39588;51.124;7.190;2023-08-17T11:18:40;23.70;99.90
53695;DHT22;39588;51.124;7.190;2023-08-17T11:21:12;23.80;99.90
53695;DHT22;39588;51.124;7.190;2023-08-17T11:23:40;23.80;99.70
53695;DHT22;39588;51.124;7.190;2023-08-17T11:26:05;23.90;99.90
53695;DHT22;39588;51.124;7.190;2023-08-17T11:28:32;23.80;99.60
53695;DHT22;39588;51.124;7.190;2023-08-17T11:31:04;23.70;99.80
53695;DHT22;39588;51.124;7.190;2023-08-17T11:33:32;23.60;99.90
53695;DHT22;39588;51.124;7.190;2023-08-17T11:35:58;23.60;99.90
53695;DHT22;39588;51.124;7.190;2023-08-17T11:38:24;23.60;99.90
53695;DHT22;39588;51.124;7.190;2023-08-17T11:40:50;23.00;99.70
53695;DHT22;39588;51.124;7.190;2023-08-17T11:43:16;23.60;99.90
53695;DHT22;39588;51.124;7.190;2023-08-17T11:45:42;23.80;99.90
53695;DHT22;39588;51.124;7.190;2023-08-17T11:48:08;24.10;99.70
53695;DHT22;39588;51.124;7.190;2023-08-17T11:50:34;24.20;99.40
53695;DHT22;39588;51.124;7.190;2023-08-17T11:53:00;24.30;99.20
53695;DHT22;39588;51.124;7.190;2023-08-17T11:55:26;24.30;99.20
53695;DHT22;39588;51.124;7.190;2023-08-17T11:57:52;24.30;99.70
53695;DHT22;39588;51.124;7.190;2023-08-17T12:00:20;24.40;99.60
53695;DHT22;39588;51.124;7.190;2023-08-17T12:02:52;24.40;99.80
53695;DHT22;39588;51.124;7.190;2023-08-17T12:05:22;24.40;99.50
53695;DHT22;39588;51.124;7.190;2023-08-17T12:07:53;24.40;99.30
53695;DHT22;39588;51.124;7.190;2023-08-17T12:10:19;24.20;99.30
53695;DHT22;39588;51.124;7.190;2023-08-17T12:12:47;24.30;99.80
53695;DHT22;39588;51.124;7.190;2023-08-17T12:15:16;24.50;99.90
53695;DHT22;39588;51.124;7.190;2023-08-17T12:17:46;24.80;99.50
53695;DHT22;39588;51.124;7.190;2023-08-17T12:20:32;24.80;98.90
53695;DHT22;39588;51.124;7.190;2023-08-17T12:23:02;24.90;98.90
53695;DHT22;39588;51.124;7.190;2023-08-17T12:25:28;25.10;99.20
53695;DHT22;39588;51.124;7.190;2023-08-17T12:27:53;25.30;98.20
53695;DHT22;39588;51.124;7.190;2023-08-17T12:30:27;25.20;98.80
53695;DHT22;39588;51.124;7.190;2023-08-17T12:32:54;25.30;98.50
53695;DHT22;39588;51.124;7.190;2023-08-17T12:35:20;25.70;98.50
53695;DHT22;39588;51.124;7.190;2023-08-17T12:37:47;25.70;98.70
53695;DHT22;39588;51.124;7.190;2023-08-17T12:40:13;25.80;98.50
53695;DHT22;39588;51.124;7.190;2023-08-17T12:42:39;25.80;98.00
53695;DHT22;39588;51.124;7.190;2023-08-17T12:45:05;25.60;98.10
53695;DHT22;39588;51.124;7.190;2023-08-17T12:47:30;25.60;98.80
53695;DHT22;39588;51.124;7.190;2023-08-17T12:49:56;25.60;97.90
53695;DHT22;39588;51.124;7.190;2023-08-17T12:52:21;25.40;97.70
53695;DHT22;39588;51.124;7.190;2023-08-17T12:54:47;25.20;97.70
53695;DHT22;39588;51.124;7.190;2023-08-17T12:57:13;24.70;97.90
53695;DHT22;39588;51.124;7.190;2023-08-17T12:59:38;24.70;98.20
53695;DHT22;39588;51.124;7.190;2023-08-17T13:02:04;24.60;98.40
53695;DHT22;39588;51.124;7.190;2023-08-17T13:04:30;24.70;98.80
53695;DHT22;39588;51.124;7.190;2023-08-17T13:06:55;24.70;98.40
53695;DHT22;39588;51.124;7.190;2023-08-17T13:09:21;24.60;98.70
53695;DHT22;39588;51.124;7.190;2023-08-17T13:11:46;24.50;99.10
53695;DHT22;39588;51.124;7.190;2023-08-17T13:14:15;24.40;99.10
53695;DHT22;39588;51.124;7.190;2023-08-17T13:16:41;24.40;99.30
53695;DHT22;39588;51.124;7.190;2023-08-17T13:19:07;24.30;99.30
53695;DHT22;39588;51.124;7.190;2023-08-17T13:21:33;24.20;99.40
53695;DHT22;39588;51.124;7.190;2023-08-17T13:23:58;24.10;99.60
53695;DHT22;39588;51.124;7.190;2023-08-17T13:26:24;24.10;99.60
53695;DHT22;39588;51.124;7.190;2023-08-17T13:28:50;24.10;99.70
53695;DHT22;39588;51.124;7.190;2023-08-17T13:33:41;23.80;99.60
53695;DHT22;39588;51.124;7.190;2023-08-17T13:36:07;23.70;99.90
53695;DHT22;39588;51.124;7.190;2023-08-17T13:38:33;23.70;99.90
53695;DHT22;39588;51.124;7.190;2023-08-17T13:40:58;23.60;99.90
53695;DHT22;39588;51.124;7.190;2023-08-17T13:43:24;23.60;99.90
53695;DHT22;39588;51.124;7.190;2023-08-17T13:45:49;23.60;99.90
53695;DHT22;39588;51.124;7.190;2023-08-17T13:48:15;23.70;99.90
53695;DHT22;39588;51.124;7.190;2023-08-17T13:50:41;23.70;99.90
53695;DHT22;39588;51.124;7.190;2023-08-17T13:53:07;24.00;99.90
53695;DHT22;39588;51.124;7.190;2023-08-17T13:55:32;24.10;99.90
53695;DHT22;39588;51.124;7.190;2023-08-17T13:57:58;24.40;99.90
53695;DHT22;39588;51.124;7.190;2023-08-17T14:00:24;24.70;99.90
53695;DHT22;39588;51.124;7.190;2023-08-17T14:02:50;24.90;99.50
53695;DHT22;39588;51.124;7.190;2023-08-17T14:05:16;24.90;99.30
53695;DHT22;39588;51.124;7.190;2023-08-17T14:07:42;24.90;99.40
53695;DHT22;39588;51.124;7.190;2023-08-17T14:10:08;24.90;99.20
53695;DHT22;39588;51.124;7.190;2023-08-17T14:12:34;24.80;99.00
53695;DHT22;39588;51.124;7.190;2023-08-17T14:15:00;24.90;99.20
53695;DHT22;39588;51.124;7.190;2023-08-17T14:17:25;25.00;99.00
53695;DHT22;39588;51.124;7.190;2023-08-17T14:19:51;25.10;99.10
53695;DHT22;39588;51.124;7.190;2023-08-17T14:22:16;24.90;98.90
53695;DHT22;39588;51.124;7.190;2023-08-17T14:24:42;25.00;99.20
53695;DHT22;39588;51.124;7.190;2023-08-17T14:27:08;25.10;99.10
53695;DHT22;39588;51.124;7.190;2023-08-17T14:29:33;25.10;99.30
53695;DHT22;39588;51.124;7.190;2023-08-17T14:31:59;25.00;99.00
53695;DHT22;39588;51.124;7.190;2023-08-17T14:34:25;24.80;99.10
53695;DHT22;39588;51.124;7.190;2023-08-17T14:36:50;24.70;99.00
53695;DHT22;39588;51.124;7.190;2023-08-17T14:39:16;24.70;99.20
53695;DHT22;39588;51.124;7.190;2023-08-17T14:41:41;24.80;99.40
53695;DHT22;39588;51.124;7.190;2023-08-17T14:44:07;24.90;99.30
53695;DHT22;39588;51.124;7.190;2023-08-17T14:46:33;25.00;99.20
53695;DHT22;39588;51.124;7.190;2023-08-17T14:48:58;24.90;99.10
53695;DHT22;39588;51.124;7.190;2023-08-17T14:51:24;24.80;99.10
53695;DHT22;39588;51.124;7.190;2023-08-17T14:53:50;24.70;99.30
53695;DHT22;39588;51.124;7.190;2023-08-17T14:56:16;24.60;99.30
53695;DHT22;39588;51.124;7.190;2023-08-17T14:58:41;24.50;99.40
53695;DHT22;39588;51.124;7.190;2023-08-17T15:01:07;24.30;99.60
53695;DHT22;39588;51.124;7.190;2023-08-17T15:03:33;24.30;99.70
53695;DHT22;39588;51.124;7.190;2023-08-17T15:05:58;24.10;99.50
53695;DHT22;39588;51.124;7.190;2023-08-17T15:08:24;24.10;99.60
53695;DHT22;39588;51.124;7.190;2023-08-17T15:10:50;24.00;99.80
53695;DHT22;39588;51.124;7.190;2023-08-17T15:13:16;24.20;99.70
53695;DHT22;39588;51.124;7.190;2023-08-17T15:15:42;24.20;99.80
53695;DHT22;39588;51.124;7.190;2023-08-17T15:18:09;24.00;99.90
53695;DHT22;39588;51.124;7.190;2023-08-17T15:20:34;23.80;99.90
53695;DHT22;39588;51.124;7.190;2023-08-17T15:23:00;23.50;99.90
53695;DHT22;39588;51.124;7.190;2023-08-17T15:25:26;23.40;99.90
53695;DHT22;39588;51.124;7.190;2023-08-17T15:27:51;23.40;99.90
53695;DHT22;39588;51.124;7.190;2023-08-17T15:30:17;23.50;99.90
53695;DHT22;39588;51.124;7.190;2023-08-17T15:32:42;23.50;99.90
53695;DHT22;39588;51.124;7.190;2023-08-17T15:35:10;23.50;99.90
53695;DHT22;39588;51.124;7.190;2023-08-17T15:37:39;23.60;99.90
53695;DHT22;39588;51.124;7.190;2023-08-17T15:40:05;23.60;99.90
53695;DHT22;39588;51.124;7.190;2023-08-17T15:42:31;23.60;99.90
53695;DHT22;39588;51.124;7.190;2023-08-17T15:44:57;23.50;99.90
53695;DHT22;39588;51.124;7.190;2023-08-17T15:47:23;23.30;99.90
53695;DHT22;39588;51.124;7.190;2023-08-17T15:49:48;23.30;99.90
53695;DHT22;39588;51.124;7.190;2023-08-17T15:52:14;23.20;99.90
53695;DHT22;39588;51.124;7.190;2023-08-17T15:54:40;23.20;99.90
53695;DHT22;39588;51.124;7.190;2023-08-17T15:57:06;23.20;99.90
53695;DHT22;39588;51.124;7.190;2023-08-17T15:59:32;23.00;99.90
53695;DHT22;39588;51.124;7.190;2023-08-17T16:01:58;23.00;99.90
53695;DHT22;39588;51.124;7.190;2023-08-17T16:04:23;22.70;99.90
53695;DHT22;39588;51.124;7.190;2023-08-17T16:06:49;22.40;99.90
53695;DHT22;39588;51.124;7.190;2023-08-17T16:09:15;22.20;99.90
53695;DHT22;39588;51.124;7.190;2023-08-17T16:11:40;22.20;99.90
53695;DHT22;39588;51.124;7.190;2023-08-17T16:14:06;22.20;99.90
53695;DHT22;39588;51.124;7.190;2023-08-17T16:16:31;22.20;99.90
53695;DHT22;39588;51.124;7.190;2023-08-17T16:18:57;22.20;99.90
53695;DHT22;39588;51.124;7.190;2023-08-17T16:21:23;22.30;99.90
53695;DHT22;39588;51.124;7.190;2023-08-17T16:23:48;22.30;99.90
53695;DHT22;39588;51.124;7.190;2023-08-17T16:26:14;22.30;99.90
53695;DHT22;39588;51.124;7.190;2023-08-17T16:28:39;22.30;99.90
53695;DHT22;39588;51.124;7.190;2023-08-17T16:31:05;22.20;99.90
53695;DHT22;39588;51.124;7.190;2023-08-17T16:33:31;22.10;99.90
53695;DHT22;39588;51.124;7.190;2023-08-17T16:35:56;21.90;99.90
53695;DHT22;39588;51.124;7.190;2023-08-17T16:38:22;21.70;99.90
53695;DHT22;39588;51.124;7.190;2023-08-17T16:40:49;21.80;99.90
53695;DHT22;39588;51.124;7.190;2023-08-17T16:43:15;21.70;99.90
53695;DHT22;39588;51.124;7.190;2023-08-17T16:45:41;21.70;99.90
53695;DHT22;39588;51.124;7.190;2023-08-17T16:48:06;21.50;99.90
53695;DHT22;39588;51.124;7.190;2023-08-17T16:50:32;21.40;99.90
53695;DHT22;39588;51.124;7.190;2023-08-17T16:52:58;21.40;99.90
53695;DHT22;39588;51.124;7.190;2023-08-17T16:55:24;21.30;99.90
53695;DHT22;39588;51.124;7.190;2023-08-17T16:57:49;21.30;99.90
53695;DHT22;39588;51.124;7.190;2023-08-17T17:00:15;21.20;99.90
53695;DHT22;39588;51.124;7.190;2023-08-17T17:02:41;21.20;99.90
53695;DHT22;39588;51.124;7.190;2023-08-17T17:05:07;21.20;99.90
53695;DHT22;39588;51.124;7.190;2023-08-17T17:07:32;21.10;99.90
53695;DHT22;39588;51.124;7.190;2023-08-17T17:09:58;20.90;99.90
53695;DHT22;39588;51.124;7.190;2023-08-17T17:14:50;21.00;99.90
53695;DHT22;39588;51.124;7.190;2023-08-17T17:17:15;20.90;99.90
53695;DHT22;39588;51.124;7.190;2023-08-17T17:19:41;20.80;99.90
53695;DHT22;39588;51.124;7.190;2023-08-17T17:22:07;20.80;99.90
53695;DHT22;39588;51.124;7.190;2023-08-17T17:24:32;20.60;99.90
53695;DHT22;39588;51.124;7.190;2023-08-17T17:26:58;20.60;99.90
53695;DHT22;39588;51.124;7.190;2023-08-17T17:31:50;20.30;99.90
53695;DHT22;39588;51.124;7.190;2023-08-17T17:34:18;20.30;99.90
53695;DHT22;39588;51.124;7.190;2023-08-17T17:36:44;20.30;99.90
53695;DHT22;39588;51.124;7.190;2023-08-17T17:39:09;20.30;99.90
53695;DHT22;39588;51.124;7.190;2023-08-17T17:41:35;20.30;99.90
53695;DHT22;39588;51.124;7.190;2023-08-17T17:44:00;20.40;99.90